createdAt,value
2023-10-15T00:00:24.729Z,50.39
2023-10-15T00:03:27.600Z,50.40
2023-10-15T00:06:32.366Z,50.37
2023-10-15T00:09:35.297Z,50.33
2023-10-15T00:12:38.636Z,50.25
2023-10-15T00:15:41.574Z,50.26
2023-10-15T00:18:44.400Z,50.28
2023-10-15T00:21:49.011Z,50.18
2023-10-15T00:24:51.881Z,50.45
2023-10-15T00:27:56.010Z,50.32
2023-10-15T00:31:02.006Z,50.29
2023-10-15T00:34:13.422Z,50.49
2023-10-15T00:37:17.680Z,50.50
2023-10-15T00:40:21.403Z,50.25
2023-10-15T00:43:24.313Z,50.32
2023-10-15T00:46:29.087Z,50.42
2023-10-15T00:49:35.072Z,50.62
2023-10-15T00:52:43.607Z,50.22
2023-10-15T00:55:47.132Z,50.38
2023-10-15T00:59:09.439Z,50.44
2023-10-15T01:02:13.522Z,50.37
2023-10-15T01:05:17.912Z,50.43
2023-10-15T01:08:29.933Z,50.47
2023-10-15T01:11:32.787Z,50.19
2023-10-15T01:14:39.526Z,50.49
2023-10-15T01:17:42.981Z,50.42
2023-10-15T01:20:45.869Z,50.42
2023-10-15T01:24:02.204Z,50.33
2023-10-15T01:27:10.320Z,50.40
2023-10-15T01:30:18.619Z,50.41
2023-10-15T01:33:21.691Z,50.36
2023-10-15T01:36:28.746Z,50.28
2023-10-15T01:39:39.296Z,50.81
2023-10-15T01:42:44.367Z,50.40
2023-10-15T01:45:48.829Z,50.33
2023-10-15T01:48:51.860Z,50.32
2023-10-15T01:51:56.443Z,50.25
2023-10-15T01:55:05.228Z,50.41
2023-10-15T01:58:13.638Z,50.14
2023-10-15T02:01:21.959Z,50.34
2023-10-15T02:04:27.007Z,50.54
2023-10-15T02:07:32.346Z,50.30
2023-10-15T02:10:36.927Z,50.26
2023-10-15T02:13:42.100Z,50.38
2023-10-15T02:16:50.462Z,50.15
2023-10-15T02:19:56.520Z,50.36
2023-10-15T02:22:59.598Z,50.53
2023-10-15T02:26:02.746Z,50.41
2023-10-15T02:29:08.818Z,50.49
2023-10-15T02:32:22.503Z,50.46
2023-10-15T02:35:32.351Z,50.44
2023-10-15T02:38:38.116Z,50.44
2023-10-15T02:41:43.182Z,50.59
2023-10-15T02:44:52.131Z,50.40
2023-10-15T02:47:56.876Z,50.37
2023-10-15T02:51:08.378Z,50.41
2023-10-15T02:54:28.062Z,50.22
2023-10-15T02:57:31.649Z,50.30
2023-10-15T03:00:37.668Z,50.54
2023-10-15T03:03:49.561Z,50.35
2023-10-15T03:06:52.535Z,50.52
2023-10-15T03:09:58.429Z,50.31
2023-10-15T03:13:02.991Z,50.54
2023-10-15T03:16:08.636Z,50.54
2023-10-15T03:19:20.069Z,50.12
2023-10-15T03:22:25.220Z,50.10
2023-10-15T03:25:29.557Z,50.38
2023-10-15T03:28:36.100Z,50.38
2023-10-15T03:31:47.107Z,50.64
2023-10-15T03:35:01.295Z,50.49
2023-10-15T03:38:07.344Z,50.71
2023-10-15T03:41:22.753Z,50.50
2023-10-15T03:44:29.116Z,50.45
2023-10-15T03:47:33.381Z,50.33
2023-10-15T03:50:54.797Z,50.52
2023-10-15T03:54:07.924Z,50.56
2023-10-15T03:57:10.928Z,50.63
2023-10-15T04:00:18.270Z,50.50
2023-10-15T04:03:24.499Z,50.50
2023-10-15T04:06:27.420Z,50.46
2023-10-15T04:09:35.008Z,50.64
2023-10-15T04:12:42.036Z,50.69
2023-10-15T04:15:44.881Z,50.74
2023-10-15T04:18:49.185Z,51.00
2023-10-15T04:22:00.574Z,50.81
2023-10-15T04:25:07.582Z,50.86
2023-10-15T04:28:12.902Z,51.06
2023-10-15T04:31:22.987Z,50.92
2023-10-15T04:34:27.884Z,51.45
2023-10-15T04:37:35.888Z,51.16
2023-10-15T04:40:51.484Z,51.25
2023-10-15T04:43:56.042Z,51.30
2023-10-15T04:47:06.338Z,51.36
2023-10-15T04:50:16.294Z,51.39
2023-10-15T04:53:25.492Z,51.22
2023-10-15T04:56:28.617Z,51.18
2023-10-15T04:59:31.480Z,51.07
2023-10-15T05:02:35.297Z,51.10
2023-10-15T05:05:39.707Z,51.24
2023-10-15T05:08:43.439Z,50.97
2023-10-15T05:11:46.326Z,50.90
2023-10-15T05:14:50.361Z,51.09
2023-10-15T05:17:53.247Z,50.88
2023-10-15T05:20:57.852Z,50.92
2023-10-15T05:24:03.842Z,51.09
2023-10-15T05:27:06.707Z,51.02
2023-10-15T05:30:11.282Z,51.11
2023-10-15T05:33:14.344Z,50.98
2023-10-15T05:36:18.583Z,51.13
2023-10-15T05:39:21.387Z,51.13
2023-10-15T05:42:24.186Z,51.06
2023-10-15T05:45:26.983Z,50.96
2023-10-15T05:48:29.777Z,51.24
2023-10-15T05:51:34.925Z,51.16
2023-10-15T05:54:37.711Z,51.34
2023-10-15T05:57:40.679Z,51.05
2023-10-15T06:00:43.559Z,51.11
2023-10-15T06:03:48.263Z,51.10
2023-10-15T06:06:53.528Z,51.44
2023-10-15T06:09:56.461Z,51.27
2023-10-15T06:12:59.251Z,51.07
2023-10-15T06:16:03.039Z,51.12
2023-10-15T06:19:06.408Z,51.24
2023-10-15T06:22:10.655Z,51.06
2023-10-15T06:25:14.393Z,51.04
2023-10-15T06:28:17.382Z,51.06
2023-10-15T06:31:20.196Z,51.12
2023-10-15T06:34:23.100Z,51.09
2023-10-15T06:37:28.472Z,51.04
2023-10-15T06:40:33.106Z,51.18
2023-10-15T06:43:38.037Z,50.87
2023-10-15T06:46:41.167Z,51.15
2023-10-15T06:49:44.112Z,51.06
2023-10-15T06:52:48.643Z,50.87
2023-10-15T06:55:52.538Z,50.97
2023-10-15T06:58:56.043Z,50.96
2023-10-15T07:01:59.026Z,50.88
2023-10-15T07:05:02.964Z,51.14
2023-10-15T07:08:07.688Z,50.90
2023-10-15T07:11:10.682Z,51.00
2023-10-15T07:14:13.696Z,51.09
2023-10-15T07:17:18.046Z,51.00
2023-10-15T07:20:22.958Z,51.10
2023-10-15T07:23:27.819Z,51.01
2023-10-15T07:26:31.621Z,50.95
2023-10-15T07:29:34.901Z,50.92
2023-10-15T07:32:37.760Z,50.80
2023-10-15T07:35:41.617Z,51.00
2023-10-15T07:38:46.446Z,50.75
2023-10-15T07:41:49.392Z,51.04
2023-10-15T07:44:52.411Z,50.91
2023-10-15T07:47:55.393Z,50.90
2023-10-15T07:50:58.225Z,50.95
2023-10-15T07:54:04.665Z,50.94
2023-10-15T07:57:08.700Z,50.89
2023-10-15T08:00:16.445Z,50.94
2023-10-15T08:03:19.650Z,51.09
2023-10-15T08:06:25.296Z,51.12
2023-10-15T08:09:31.154Z,51.26
2023-10-15T08:12:34.016Z,50.93
2023-10-15T08:15:37.686Z,51.05
2023-10-15T08:18:40.737Z,51.00
2023-10-15T08:21:44.831Z,50.78
2023-10-15T08:24:49.000Z,50.86
2023-10-15T08:27:51.934Z,50.74
2023-10-15T08:30:55.851Z,51.00
2023-10-15T08:33:58.748Z,50.70
2023-10-15T08:37:01.544Z,50.66
2023-10-15T08:40:06.548Z,50.76
2023-10-15T08:43:13.270Z,50.75
2023-10-15T08:46:16.545Z,50.54
2023-10-15T08:49:20.770Z,50.68
2023-10-15T08:52:24.315Z,50.54
2023-10-15T08:55:28.688Z,50.36
2023-10-15T08:58:32.041Z,50.48
2023-10-15T09:01:35.640Z,50.42
2023-10-15T09:04:38.784Z,50.69
2023-10-15T09:07:41.760Z,50.45
2023-10-15T09:10:46.144Z,50.44
2023-10-15T09:13:51.901Z,50.50
2023-10-15T09:16:57.855Z,50.38
2023-10-15T09:20:02.026Z,50.55
2023-10-15T09:23:05.191Z,50.46
2023-10-15T09:26:09.849Z,50.25
2023-10-15T09:29:22.071Z,50.37
2023-10-15T09:32:26.302Z,50.31
2023-10-15T09:35:30.797Z,50.44
2023-10-15T09:38:34.124Z,50.14
2023-10-15T09:41:38.507Z,50.23
2023-10-15T09:44:41.405Z,50.31
2023-10-15T09:47:49.630Z,50.41
2023-10-15T09:50:55.045Z,50.25
2023-10-15T09:54:01.001Z,50.27
2023-10-15T09:57:07.077Z,50.24
2023-10-15T10:00:20.398Z,50.04
2023-10-15T10:03:53.829Z,50.10
2023-10-15T10:07:11.587Z,50.05
2023-10-15T10:10:27.684Z,49.95
2023-10-15T10:13:51.576Z,50.15
2023-10-15T10:16:57.058Z,49.98
2023-10-15T10:20:12.130Z,50.14
2023-10-15T10:23:15.750Z,50.05
2023-10-15T10:26:20.882Z,49.87
2023-10-15T10:29:27.067Z,50.02
2023-10-15T10:32:31.421Z,49.89
2023-10-15T10:35:44.309Z,50.17
2023-10-15T10:38:55.165Z,49.93
2023-10-15T10:42:00.346Z,49.89
2023-10-15T10:45:03.224Z,49.67
2023-10-15T10:48:07.689Z,49.92
2023-10-15T10:51:14.179Z,50.10
2023-10-15T10:54:26.710Z,49.76
2023-10-15T10:57:32.845Z,49.82
2023-10-15T11:00:35.673Z,49.81
2023-10-15T11:03:41.553Z,49.79
2023-10-15T11:06:46.823Z,49.79
2023-10-15T11:09:51.233Z,49.70
2023-10-15T11:12:54.099Z,49.51
2023-10-15T11:15:56.946Z,49.47
2023-10-15T11:19:01.133Z,49.31
2023-10-15T11:22:05.206Z,49.59
2023-10-15T11:25:15.627Z,49.45
2023-10-15T11:28:20.114Z,49.83
2023-10-15T11:31:23.100Z,49.76
2023-10-15T11:34:29.582Z,49.58
2023-10-15T11:37:36.332Z,49.55
2023-10-15T11:40:39.883Z,49.27
2023-10-15T11:43:44.817Z,49.12
2023-10-15T11:46:48.810Z,49.44
2023-10-15T11:49:53.165Z,49.58
2023-10-15T11:52:56.793Z,49.51
2023-10-15T11:55:59.799Z,49.53
2023-10-15T11:59:02.841Z,49.48
2023-10-15T12:02:05.743Z,48.97
2023-10-15T12:05:10.837Z,49.09
2023-10-15T12:08:14.648Z,49.00
2023-10-15T12:11:19.681Z,49.20
2023-10-15T12:14:22.615Z,49.06
2023-10-15T12:17:25.598Z,49.31
2023-10-15T12:20:30.085Z,49.09
2023-10-15T12:23:33.005Z,49.12
2023-10-15T12:26:35.796Z,49.31
2023-10-15T12:29:40.311Z,48.88
2023-10-15T12:32:47.337Z,48.92
2023-10-15T12:35:52.619Z,49.32
2023-10-15T12:38:55.737Z,49.18
2023-10-15T12:41:59.962Z,48.86
2023-10-15T12:45:02.774Z,48.88
2023-10-15T12:48:06.605Z,49.11
2023-10-15T12:51:11.657Z,49.00
2023-10-15T12:54:14.909Z,48.86
2023-10-15T12:57:17.825Z,48.80
2023-10-15T13:00:22.635Z,48.61
2023-10-15T13:03:26.643Z,48.26
2023-10-15T13:06:30.826Z,48.64
2023-10-15T13:09:34.883Z,48.83
2023-10-15T13:12:37.757Z,48.98
2023-10-15T13:15:40.578Z,48.83
2023-10-15T13:18:43.463Z,48.93
2023-10-15T13:21:47.751Z,48.74
2023-10-15T13:24:50.571Z,49.06
2023-10-15T13:27:53.476Z,49.21
2023-10-15T13:30:56.533Z,49.09
2023-10-15T13:33:59.437Z,48.93
2023-10-15T13:37:05.341Z,48.98
2023-10-15T13:40:11.080Z,49.10
2023-10-15T13:43:13.888Z,49.01
2023-10-15T13:46:16.717Z,48.95
2023-10-15T13:49:19.990Z,49.12
2023-10-15T13:52:24.268Z,48.91
2023-10-15T13:55:27.162Z,49.07
2023-10-15T13:58:30.545Z,49.21
2023-10-15T14:01:34.225Z,49.08
2023-10-15T14:04:37.171Z,48.99
2023-10-15T14:07:41.789Z,48.93
2023-10-15T14:10:44.678Z,48.72
2023-10-15T14:13:47.862Z,49.17
2023-10-15T14:16:50.905Z,49.21
2023-10-15T14:19:56.017Z,48.80
2023-10-15T14:23:00.319Z,49.21
2023-10-15T14:26:03.449Z,49.28
2023-10-15T14:29:06.759Z,49.38
2023-10-15T14:32:09.774Z,49.25
2023-10-15T14:35:13.023Z,49.39
2023-10-15T14:38:17.249Z,49.30
2023-10-15T14:41:20.335Z,49.49
2023-10-15T14:44:24.259Z,49.60
2023-10-15T14:47:28.214Z,49.46
2023-10-15T14:50:31.451Z,49.53
2023-10-15T14:53:35.746Z,49.50
2023-10-15T14:56:38.604Z,49.52
2023-10-15T15:02:51.997Z,49.70
2023-10-15T15:05:54.855Z,49.86
2023-10-15T15:08:57.681Z,49.72
2023-10-15T15:12:00.484Z,49.75
2023-10-15T15:15:03.664Z,49.73
2023-10-15T15:18:07.995Z,50.05
2023-10-15T15:21:10.866Z,50.04
2023-10-15T15:24:17.065Z,49.95
2023-10-15T15:27:19.954Z,49.87
2023-10-15T15:30:23.135Z,50.15
2023-10-15T15:33:28.507Z,50.13
2023-10-15T15:36:31.366Z,50.09
2023-10-15T15:39:34.184Z,50.14
2023-10-15T15:42:38.696Z,49.99
2023-10-15T15:45:41.735Z,50.24
2023-10-15T15:48:46.679Z,50.18
2023-10-15T15:51:51.565Z,50.55
2023-10-15T15:54:57.272Z,50.45
2023-10-15T15:58:00.090Z,50.34
2023-10-15T16:01:03.718Z,50.64
2023-10-15T16:04:08.827Z,50.76
2023-10-15T16:07:11.979Z,50.53
2023-10-15T16:10:15.884Z,50.59
2023-10-15T16:13:18.947Z,50.76
2023-10-15T16:16:23.113Z,50.78
2023-10-15T16:19:27.332Z,50.58
2023-10-15T16:22:30.276Z,50.63
2023-10-15T16:25:33.480Z,50.72
2023-10-15T16:28:36.363Z,50.55
2023-10-15T16:31:39.223Z,50.76
2023-10-15T16:34:43.573Z,50.59
2023-10-15T16:37:46.457Z,50.61
2023-10-15T16:40:49.366Z,50.60
2023-10-15T16:43:52.236Z,50.52
2023-10-15T16:46:57.704Z,50.60
2023-10-15T16:50:02.272Z,50.77
2023-10-15T16:53:09.799Z,50.96
2023-10-15T16:56:14.988Z,50.94
2023-10-15T16:59:18.036Z,51.15
2023-10-15T17:02:21.006Z,51.33
2023-10-15T17:05:25.598Z,51.29
2023-10-15T17:08:30.577Z,51.42
2023-10-15T17:11:33.409Z,51.16
2023-10-15T17:14:36.277Z,51.53
2023-10-15T17:17:39.206Z,51.67
2023-10-15T17:20:43.471Z,51.60
2023-10-15T17:23:47.329Z,51.47
2023-10-15T17:26:50.179Z,51.24
2023-10-15T17:30:13.635Z,51.27
2023-10-15T17:33:16.824Z,51.36
2023-10-15T17:36:23.381Z,51.18
2023-10-15T17:39:28.129Z,51.52
2023-10-15T17:42:31.041Z,51.59
2023-10-15T17:45:34.097Z,51.46
2023-10-15T17:48:36.973Z,51.47
2023-10-15T17:51:42.039Z,51.45
2023-10-15T17:54:45.745Z,51.45
2023-10-15T17:57:48.617Z,51.40
2023-10-15T18:00:51.589Z,51.23
2023-10-15T18:03:54.932Z,51.23
2023-10-15T18:07:00.132Z,51.22
2023-10-15T18:10:02.983Z,51.20
2023-10-15T18:13:05.898Z,51.26
2023-10-15T18:16:08.867Z,51.34
2023-10-15T18:19:11.704Z,51.28
2023-10-15T18:22:15.903Z,51.17
2023-10-15T18:25:18.679Z,51.43
2023-10-15T18:28:21.934Z,51.28
2023-10-15T18:31:25.093Z,51.25
2023-10-15T18:34:29.610Z,51.24
2023-10-15T18:37:34.048Z,51.44
2023-10-15T18:40:36.969Z,51.30
2023-10-15T18:43:40.045Z,51.41
2023-10-15T18:46:42.945Z,51.17
2023-10-15T18:49:45.808Z,51.15
2023-10-15T18:52:49.984Z,51.16
2023-10-15T18:55:52.841Z,51.15
2023-10-15T18:58:57.496Z,50.89
2023-10-15T19:02:00.489Z,51.03
2023-10-15T19:05:03.459Z,50.99
2023-10-15T19:08:08.533Z,51.10
2023-10-15T19:11:14.754Z,51.09
2023-10-15T19:14:17.809Z,51.16
2023-10-15T19:17:20.581Z,51.00
2023-10-15T19:20:24.175Z,51.10
2023-10-15T19:23:28.378Z,51.20
2023-10-15T19:26:31.486Z,51.20
2023-10-15T19:29:34.353Z,51.22
2023-10-15T19:32:37.193Z,51.31
2023-10-15T19:35:39.987Z,51.05
2023-10-15T19:38:44.155Z,51.20
2023-10-15T19:41:46.973Z,51.14
2023-10-15T19:44:49.801Z,51.05
2023-10-15T19:47:53.978Z,51.05
2023-10-15T19:50:56.912Z,51.11
2023-10-15T19:54:01.203Z,51.21
2023-10-15T19:57:04.251Z,51.16
2023-10-15T20:00:19.557Z,51.13
2023-10-15T20:03:22.897Z,51.12
2023-10-15T20:06:26.202Z,50.88
2023-10-15T20:09:30.581Z,50.73
2023-10-15T20:12:33.872Z,50.53
2023-10-15T20:15:36.754Z,50.53
2023-10-15T20:18:39.558Z,50.18
2023-10-15T20:21:42.536Z,49.99
2023-10-15T20:24:47.421Z,50.58
2023-10-15T20:27:50.509Z,50.35
2023-10-15T20:30:53.642Z,50.63
2023-10-15T20:33:56.755Z,50.43
2023-10-15T20:36:59.711Z,50.39
2023-10-15T20:40:12.365Z,50.33
2023-10-15T20:43:15.218Z,50.52
2023-10-15T20:46:18.085Z,50.62
2023-10-15T20:49:20.990Z,50.42
2023-10-15T20:52:23.822Z,50.35
2023-10-15T20:55:28.091Z,50.33
2023-10-15T20:58:30.975Z,50.48
2023-10-15T21:01:33.927Z,50.29
2023-10-15T21:04:36.869Z,50.35
2023-10-15T21:07:40.433Z,50.24
2023-10-15T21:10:44.738Z,50.46
2023-10-15T21:13:47.555Z,50.43
2023-10-15T21:16:50.382Z,50.30
2023-10-15T21:19:55.987Z,50.42
2023-10-15T21:22:59.922Z,50.25
2023-10-15T21:26:04.092Z,50.34
2023-10-15T21:29:07.011Z,50.24
2023-10-15T21:32:09.853Z,50.29
2023-10-15T21:35:12.736Z,50.40
2023-10-15T21:38:15.588Z,50.61
2023-10-15T21:41:19.829Z,50.14
2023-10-15T21:44:22.650Z,50.50
2023-10-15T21:47:25.525Z,50.37
2023-10-15T21:50:28.482Z,50.54
2023-10-15T21:53:31.299Z,49.97
2023-10-15T21:56:35.943Z,50.29
2023-10-15T21:59:38.798Z,50.06
2023-10-15T22:02:41.715Z,51.04
2023-10-15T22:05:45.002Z,50.41
2023-10-15T22:08:47.838Z,52.29
2023-10-15T22:11:53.465Z,53.29
2023-10-15T22:14:58.518Z,51.22
2023-10-15T22:18:04.330Z,52.00
2023-10-15T22:21:07.935Z,51.62
2023-10-15T22:24:23.288Z,51.49
2023-10-15T22:27:27.529Z,51.86
2023-10-15T22:30:39.080Z,51.44
2023-10-15T22:33:42.413Z,51.33
2023-10-15T22:36:45.247Z,51.72
2023-10-15T22:39:48.259Z,51.73
2023-10-15T22:42:52.487Z,51.67
2023-10-15T22:45:55.305Z,52.23
2023-10-15T22:48:58.165Z,51.88
2023-10-15T22:52:01.177Z,51.59
2023-10-15T22:55:04.623Z,52.55
2023-10-15T22:58:08.899Z,51.71
2023-10-15T23:01:20.179Z,51.91
2023-10-15T23:04:23.231Z,52.06
2023-10-15T23:07:26.197Z,52.61
2023-10-15T23:10:29.430Z,52.51
2023-10-15T23:13:34.678Z,52.12
2023-10-15T23:16:40.776Z,52.89
2023-10-15T23:19:43.854Z,52.92
2023-10-15T23:22:47.064Z,51.66
2023-10-15T23:25:53.323Z,52.30
2023-10-15T23:28:57.952Z,52.47
2023-10-15T23:32:00.897Z,52.18
2023-10-15T23:35:03.812Z,52.36
2023-10-15T23:38:08.653Z,52.50
2023-10-15T23:41:12.287Z,52.22
2023-10-15T23:44:20.890Z,51.66
2023-10-15T23:47:23.805Z,52.08
2023-10-15T23:50:32.421Z,52.41
2023-10-15T23:53:36.579Z,51.82
2023-10-15T23:56:43.149Z,51.92
2023-10-15T23:59:47.782Z,52.10
